Occidental, CA (95465)

3:17 AM PDT on September 15, 2014 (GMT -0700)
Joy Woods | Change Station
CLOSE
Current Station
Personal Weather Station
Location: Occidental, CA
Elevation: 840 ft
Nearby Weather Stations

Elev 840 ft 38.38 °N, 122.97 °W | Updated 23 seconds ago

Partly Cloudy
Partly Cloudy
55.9 °F
Feels Like 55.9 °F
N
0.0
Wind Variable Wind from North
Gusts 0.0 mph

Today
High -- | Low -- °F
--% Chance of Precip.
Yesterday
High -- | Low -- °F
Precip. -- in
6:53 AM 7:19 PM
Waning Gibbous, 57% visible
Pressure 29.83 in
Visibility 7.0 miles
Clouds Clear
Dew Point 52 °F
Humidity 87%
Rainfall 0.00 in
Snow Depth 1 in , 0 in , 0 in
UV 0 out of 12
Pollen 6.20 out of 12
Air Quality Not available.
Flu Activity Not available.
METAR KSTS 150953Z AUTO 32003KT 7SM CLR 11/11 A2984 RMK AO2 SLP099 T01110106

More Conditions Fewer Conditions

Pressure 29.83 in
Visibility 7.0 miles
Clouds Clear
Dew Point 52 °F
Humidity 87%
Rainfall 0.00 in
Snow Depth 1 in , 0 in , 0 in
UV 0 out of 12
Pollen 6.20 out of 12
Air Quality Not available.
Flu Activity Not available.
METAR KSTS 150953Z AUTO 32003KT 7SM CLR 11/11 A2984 RMK AO2 SLP099 T01110106

More Conditions Fewer Conditions

10-Day Weather Forecast

Almanac

Astronomy

Sep. 15, 2014 Rise Set
Actual Time 6:53 AM PDT 7:19 PM PDT
Civil Twilight 6:27 AM PDT 7:46 PM PDT
Nautical Twilight 5:55 AM PDT 8:17 PM PDT
Astronomical Twilight 5:23 AM PDT 8:49 PM PDT
Moon No Moon Rise 1:53 PM PDT
Length of Visible Light 13h 19m
Length of Day
12h 26m
Tomorrow will be 2m 27s shorter.
Waning Gibbous, 57% of the Moon is Illuminated
Today
Waning Gibbous
Sep 15
Last Quarter
Sep 24
New
Oct 1
First Quarter
Oct 8
Full

Today's Extremes

State Highs State Lows

Community

WunderPhotos

Upload Photos

1,753,428 photos uploaded!

WunderBlogs® & News

Nearby

Air Quality

  Air Quality AQ Index Pollutant
Monday Good
PM2.5
Tuesday Good
PM2.5
Wednesday Good
PM2.5
Thursday Good
PM2.5
Friday Good
PM2.5

Snow Depth

Station Depth Elevation
Spratt Creek 1 in 6200 ft
Monitor Pass 0 in 8350 ft
Hagan's Meadow 0 in 8000 ft
Tahoe City Cross 0 in 6750 ft
Summit Meadow 0 in 9122 ft

Earthquake Activity

City Distance Mag. Time & Date
Covelo, California 94 miles 3.5 1:17 PM PDT
2014-09-14
Cobb, California 30 miles 2.8 11:07 AM PDT
2014-09-14
Ridgemark, California 150 miles 2.6 12:44 PM PDT
2014-09-12
Minimum magnitude displayed is 2.5.

Coastal Water Temperatures

Place Temperature
Point Reyes, CA 64.0 °F
Arena Cove, CA 60.1 °F
San Francisco, CA 66.0 °F
Richmond, CA 68.0 °F

Nearby Weather Stations